Time;durP1;ratioP1;P1;durP2;ratioP2;P2;SDS_P1;SDS_P2;PMS_P1;PMS_P2;Temp;Humidity;BMP_temperature;BMP_pressure;BME280_temperature;BME280_humidity;BME280_pressure;Samples;Min_cycle;Max_cycle;Signal;HPM_P1;HPM_P2
2023/07/03 00:00:06;;;;;;;6.90;1.92;;;15.90;99.90;;;;;;4916695;29;20043;-95
2023/07/03 00:02:32;;;;;;;6.88;2.20;;;15.90;99.90;;;;;;4919535;29;20245;-94
2023/07/03 00:04:58;;;;;;;7.28;2.28;;;15.90;99.90;;;;;;4916722;29;20047;-93
2023/07/03 00:07:24;;;;;;;5.97;1.80;;;15.90;99.90;;;;;;4888350;29;20469;-95
2023/07/03 00:09:49;;;;;;;5.00;1.95;;;15.80;99.90;;;;;;4914531;29;20130;-95
2023/07/03 00:12:15;;;;;;;8.80;2.33;;;15.90;99.90;;;;;;4901626;29;20047;-94
2023/07/03 00:14:41;;;;;;;6.53;2.55;;;15.90;99.90;;;;;;4916440;29;20043;-94
2023/07/03 00:17:10;;;;;;;6.15;1.95;;;15.90;99.90;;;;;;4891557;29;20050;-93
2023/07/03 00:19:36;;;;;;;10.13;2.47;;;15.90;99.90;;;;;;4923151;29;20729;-95
2023/07/03 00:22:02;;;;;;;5.63;2.00;;;15.90;99.90;;;;;;4906248;29;20133;-94
2023/07/03 00:24:29;;;;;;;5.97;2.25;;;15.90;99.90;;;;;;4905941;29;20043;-94
2023/07/03 00:26:55;;;;;;;4.72;2.00;;;15.90;99.90;;;;;;4917589;29;20043;-94
2023/07/03 00:29:22;;;;;;;7.47;2.00;;;15.90;99.90;;;;;;4885508;29;20040;-94
2023/07/03 00:31:47;;;;;;;6.50;1.98;;;15.90;99.90;;;;;;4915368;29;20046;-93
2023/07/03 00:34:13;;;;;;;6.07;2.40;;;15.80;99.90;;;;;;4894839;29;20051;-94
2023/07/03 00:36:39;;;;;;;6.60;2.05;;;15.90;99.90;;;;;;4906199;29;20044;-93
2023/07/03 00:39:05;;;;;;;6.43;2.08;;;15.80;99.90;;;;;;4905295;29;20502;-93
2023/07/03 00:41:32;;;;;;;4.30;1.75;;;15.80;99.90;;;;;;4902503;29;20075;-95
2023/07/03 00:43:57;;;;;;;5.15;2.30;;;15.80;99.90;;;;;;4904398;29;20035;-94
2023/07/03 00:46:24;;;;;;;6.05;2.00;;;15.80;99.90;;;;;;4903232;29;20066;-95
2023/07/03 00:48:50;;;;;;;6.88;2.17;;;15.80;99.90;;;;;;4889588;29;20036;-94
2023/07/03 00:51:16;;;;;;;5.75;1.80;;;15.80;99.90;;;;;;4905061;29;20102;-95
2023/07/03 00:53:43;;;;;;;5.80;2.10;;;15.80;99.90;;;;;;4903640;29;20043;-94
2023/07/03 00:56:09;;;;;;;6.55;2.10;;;15.80;99.90;;;;;;4903665;29;20516;-95
2023/07/03 00:58:35;;;;;;;6.20;2.03;;;15.80;99.90;;;;;;4934184;29;20518;-93
2023/07/03 01:01:15;;;;;;;6.43;2.00;;;15.80;99.90;;;;;;4936398;29;20032;-94
2023/07/03 01:03:45;;;;;;;6.15;2.15;;;15.80;99.90;;;;;;4920350;29;20039;-95
2023/07/03 01:06:19;;;;;;;4.60;1.77;;;15.80;99.90;;;;;;4921381;29;20403;-95
2023/07/03 01:08:52;;;;;;;4.78;1.90;;;15.80;99.90;;;;;;4920494;29;20569;-95
2023/07/03 01:11:20;;;;;;;4.68;1.80;;;15.70;99.90;;;;;;4921824;29;20039;-94
2023/07/03 01:13:49;;;;;;;7.45;1.98;;;15.70;99.90;;;;;;4917864;29;20039;-94
2023/07/03 01:16:15;;;;;;;6.88;1.90;;;15.70;99.90;;;;;;4905008;29;20143;-94
2023/07/03 01:18:43;;;;;;;4.25;1.90;;;15.70;99.90;;;;;;4919077;29;20059;-95
2023/07/03 01:21:24;;;;;;;4.57;1.85;;;15.70;99.90;;;;;;4917346;29;20046;-94
2023/07/03 01:23:57;;;;;;;5.80;2.03;;;15.70;99.90;;;;;;4915558;29;20138;-94
2023/07/03 01:26:26;;;;;;;5.30;1.80;;;15.70;99.90;;;;;;4921904;29;20794;-94
2023/07/03 01:28:56;;;;;;;5.53;1.77;;;15.70;99.90;;;;;;4918356;29;20044;-95
2023/07/03 01:31:24;;;;;;;6.47;2.38;;;15.70;99.90;;;;;;4917711;29;20051;-94
2023/07/03 01:33:52;;;;;;;5.88;2.00;;;15.70;99.90;;;;;;4921946;29;20047;-95
2023/07/03 01:36:18;;;;;;;5.70;1.73;;;15.60;99.90;;;;;;4919905;29;20053;-94
2023/07/03 01:38:45;;;;;;;5.82;1.98;;;15.60;99.90;;;;;;4920674;29;20043;-94
2023/07/03 01:41:14;;;;;;;6.13;2.00;;;15.70;99.90;;;;;;4920607;29;20043;-94
2023/07/03 01:43:41;;;;;;;5.30;1.60;;;15.70;99.90;;;;;;4927531;29;20047;-95
2023/07/03 01:46:08;;;;;;;5.28;1.88;;;15.70;99.90;;;;;;4922127;29;20574;-93
2023/07/03 01:48:34;;;;;;;7.93;1.85;;;15.70;99.90;;;;;;4921792;29;20043;-93
2023/07/03 01:51:03;;;;;;;5.75;1.80;;;15.60;99.90;;;;;;4920620;29;20130;-94
2023/07/03 01:53:32;;;;;;;7.00;2.15;;;15.70;99.90;;;;;;4922156;29;20403;-94
2023/07/03 01:56:21;;;;;;;4.82;1.98;;;15.70;99.90;;;;;;4921418;29;20054;-94
2023/07/03 01:58:50;;;;;;;4.70;1.48;;;15.70;99.90;;;;;;4922209;29;20501;-93
2023/07/03 02:01:44;;;;;;;4.22;1.80;;;15.70;99.90;;;;;;4921896;29;20043;-95
2023/07/03 02:04:32;;;;;;;3.42;1.50;;;15.70;99.90;;;;;;4920570;29;20130;-94
2023/07/03 02:06:59;;;;;;;5.50;1.73;;;15.70;99.90;;;;;;4921944;29;20043;-94
2023/07/03 02:09:26;;;;;;;6.47;2.17;;;15.70;99.90;;;;;;4921049;29;20051;-95
2023/07/03 02:11:53;;;;;;;5.63;1.93;;;15.60;99.90;;;;;;4924768;29;20376;-95
2023/07/03 02:14:19;;;;;;;4.85;1.40;;;15.60;99.90;;;;;;4906584;29;20398;-94
2023/07/03 02:16:47;;;;;;;4.07;1.70;;;15.60;99.90;;;;;;4920201;29;20122;-94
2023/07/03 02:19:15;;;;;;;6.03;1.80;;;15.60;99.90;;;;;;4906341;29;20698;-95
2023/07/03 02:21:44;;;;;;;5.65;1.77;;;15.50;99.90;;;;;;4915225;29;20482;-95
2023/07/03 02:24:11;;;;;;;3.80;1.38;;;15.50;99.90;;;;;;4916930;29;20126;-95
2023/07/03 02:26:37;;;;;;;6.32;1.73;;;15.40;99.90;;;;;;4918911;29;20035;-94
2023/07/03 02:29:03;;;;;;;4.60;1.35;;;15.40;99.90;;;;;;4921329;29;20713;-95
2023/07/03 02:31:29;;;;;;;3.50;1.65;;;15.40;99.90;;;;;;4909287;29;20050;-95
2023/07/03 02:33:55;;;;;;;3.10;1.40;;;15.30;99.90;;;;;;4907933;29;20059;-94
2023/07/03 02:36:24;;;;;;;3.80;1.40;;;15.30;99.90;;;;;;4908163;29;20053;-95
2023/07/03 02:38:50;;;;;;;6.90;1.77;;;15.20;99.90;;;;;;4924487;29;20074;-93
2023/07/03 02:41:16;;;;;;;5.65;1.27;;;15.20;99.90;;;;;;4924695;29;20074;-94
2023/07/03 02:43:41;;;;;;;5.63;1.75;;;15.20;99.90;;;;;;4908897;29;20039;-95
2023/07/03 02:46:08;;;;;;;5.13;1.42;;;15.20;99.90;;;;;;4924664;29;20048;-95
2023/07/03 02:48:34;;;;;;;6.55;1.58;;;15.10;99.90;;;;;;4924781;29;20039;-95
2023/07/03 02:51:00;;;;;;;4.72;1.25;;;15.10;99.90;;;;;;4923645;29;20050;-95
2023/07/03 02:53:25;;;;;;;7.60;1.65;;;15.10;99.90;;;;;;4915789;29;20040;-95
2023/07/03 02:55:54;;;;;;;5.15;1.40;;;15.10;99.90;;;;;;4914579;29;20050;-94
2023/07/03 02:58:20;;;;;;;5.30;1.20;;;15.10;99.90;;;;;;4921820;29;20039;-95
2023/07/03 03:00:48;;;;;;;4.63;1.23;;;15.10;99.90;;;;;;4924738;29;20095;-94
2023/07/03 03:03:14;;;;;;;4.47;1.20;;;15.10;99.90;;;;;;4908644;29;20070;-95
2023/07/03 03:05:40;;;;;;;4.97;1.23;;;15.00;99.90;;;;;;4908324;29;20039;-94
2023/07/03 03:08:07;;;;;;;4.85;1.20;;;15.00;99.90;;;;;;4907776;29;20479;-95
2023/07/03 03:10:33;;;;;;;3.45;1.17;;;15.00;99.90;;;;;;4909565;29;20086;-95
2023/07/03 03:12:59;;;;;;;2.92;0.98;;;15.00;99.90;;;;;;4924462;29;20075;-94
2023/07/03 03:15:27;;;;;;;4.68;1.30;;;15.00;99.90;;;;;;4893244;29;20525;-95
2023/07/03 03:17:52;;;;;;;;;;;15.00;99.90;;;;;;4924793;29;20054;-93
2023/07/03 03:20:18;;;;;;;4.13;1.15;;;14.90;99.90;;;;;;4907844;29;19930;-96
2023/07/03 03:22:44;;;;;;;4.30;1.10;;;14.90;99.90;;;;;;4938129;29;20093;-94
2023/07/03 03:25:10;;;;;;;3.78;1.20;;;14.90;99.90;;;;;;4889795;29;20069;-95
2023/07/03 03:27:35;;;;;;;3.22;0.90;;;14.90;99.90;;;;;;4920909;29;20443;-96
2023/07/03 03:30:01;;;;;;;3.50;0.82;;;14.90;99.90;;;;;;4952746;29;20117;-95
2023/07/03 03:32:28;;;;;;;5.18;1.30;;;14.90;99.90;;;;;;4923357;29;20402;-95
2023/07/03 03:34:54;;;;;;;3.92;1.08;;;14.90;99.90;;;;;;4923111;29;20047;-92
2023/07/03 03:37:20;;;;;;;3.77;1.20;;;14.90;99.90;;;;;;4904549;29;20050;-95
2023/07/03 03:39:46;;;;;;;4.25;1.15;;;14.90;99.90;;;;;;4908355;29;20475;-94
2023/07/03 03:42:12;;;;;;;4.72;1.08;;;14.80;99.90;;;;;;4923793;29;20129;-94
2023/07/03 03:44:38;;;;;;;7.75;1.45;;;14.80;99.90;;;;;;4939387;29;20134;-93
2023/07/03 03:47:04;;;;;;;4.47;0.93;;;14.80;99.90;;;;;;4939452;29;20067;-94
2023/07/03 03:49:31;;;;;;;7.15;1.92;;;14.80;99.90;;;;;;4936028;29;20043;-95
2023/07/03 03:51:57;;;;;;;6.97;1.67;;;14.80;99.90;;;;;;4921788;29;20125;-95
2023/07/03 03:54:23;;;;;;;2.85;1.08;;;14.80;99.90;;;;;;4923365;29;20636;-95
2023/07/03 03:56:48;;;;;;;5.40;1.33;;;14.80;99.90;;;;;;4924045;29;20043;-95
2023/07/03 03:59:14;;;;;;;3.20;1.10;;;14.80;99.90;;;;;;4951178;29;20052;-94
2023/07/03 04:01:42;;;;;;;3.10;1.00;;;14.80;99.90;;;;;;4906719;29;20590;-95
2023/07/03 04:04:07;;;;;;;5.13;0.88;;;14.80;99.90;;;;;;4913369;29;20035;-95
2023/07/03 04:06:35;;;;;;;3.00;1.10;;;14.80;99.90;;;;;;4903193;29;20103;-95
2023/07/03 04:09:01;;;;;;;;;;;14.80;99.90;;;;;;4887061;29;20490;-94
2023/07/03 04:11:28;;;;;;;5.85;1.27;;;14.80;99.90;;;;;;4919294;29;19922;-95
2023/07/03 04:13:54;;;;;;;3.90;1.23;;;14.80;99.90;;;;;;4915814;29;20085;-95
2023/07/03 04:16:20;;;;;;;5.97;1.30;;;14.80;99.90;;;;;;4932341;29;20066;-94
2023/07/03 04:18:46;;;;;;;4.53;1.00;;;14.80;99.90;;;;;;4916009;29;20109;-95
2023/07/03 04:21:12;;;;;;;2.83;0.95;;;14.80;99.90;;;;;;4950475;29;20039;-94
2023/07/03 04:23:38;;;;;;;4.95;1.00;;;14.90;99.90;;;;;;4927365;29;20844;-96
2023/07/03 04:26:04;;;;;;;6.60;1.10;;;14.90;99.90;;;;;;4905106;29;20028;-95
2023/07/03 04:28:30;;;;;;;8.38;1.80;;;14.90;99.90;;;;;;4920116;29;20050;-93
2023/07/03 04:30:56;;;;;;;5.40;0.90;;;15.00;99.90;;;;;;4922112;29;20046;-94
2023/07/03 04:33:22;;;;;;;5.65;1.15;;;15.00;99.90;;;;;;4953879;28;20035;-96
2023/07/03 04:35:48;;;;;;;5.47;1.15;;;14.30;99.90;;;;;;4918220;29;20043;-96
2023/07/03 04:38:18;;;;;;;4.95;0.93;;;15.00;99.90;;;;;;4918176;29;20633;-94
2023/07/03 04:40:47;;;;;;;3.00;0.90;;;15.00;99.90;;;;;;4924395;29;20054;-96
2023/07/03 04:43:15;;;;;;;3.78;1.15;;;15.30;99.90;;;;;;4924624;29;20154;-95
2023/07/03 04:45:49;;;;;;;5.45;1.40;;;15.20;99.90;;;;;;4905236;29;20510;-95
2023/07/03 04:48:16;;;;;;;5.18;1.23;;;15.20;99.90;;;;;;4925817;29;20087;-95
2023/07/03 04:50:43;;;;;;;5.28;1.38;;;15.00;99.90;;;;;;4924350;29;20047;-94
2023/07/03 04:53:09;;;;;;;6.40;1.60;;;15.30;99.90;;;;;;4923753;29;20134;-96
2023/07/03 04:55:35;;;;;;;3.05;0.80;;;15.30;99.90;;;;;;4922897;29;20462;-96
2023/07/03 04:58:02;;;;;;;3.83;1.13;;;15.30;99.90;;;;;;4922283;29;20039;-95
2023/07/03 05:00:28;;;;;;;5.03;1.08;;;15.50;99.90;;;;;;4945791;29;20051;-95
2023/07/03 05:03:23;;;;;;;;;;;;;;;;;;;;;
2023/07/03 05:06:02;;;;;;;3.78;1.08;;;15.30;99.90;;;;;;4944867;29;20509;-94
2023/07/03 05:08:28;;;;;;;4.15;1.10;;;15.30;99.90;;;;;;4921264;29;20134;-95
2023/07/03 05:10:54;;;;;;;4.82;1.20;;;15.40;99.90;;;;;;4906084;29;20497;-94
2023/07/03 05:13:19;;;;;;;4.72;1.35;;;15.40;99.90;;;;;;4920119;29;20049;-94
2023/07/03 05:15:45;;;;;;;4.47;1.25;;;15.40;99.90;;;;;;4921335;28;20039;-94
2023/07/03 05:18:11;;;;;;;6.20;1.10;;;15.50;99.90;;;;;;4901724;29;20384;-94
2023/07/03 05:20:37;;;;;;;2.58;1.10;;;15.50;99.90;;;;;;4920267;29;20071;-95
2023/07/03 05:23:03;;;;;;;5.05;1.35;;;15.60;99.90;;;;;;4905242;29;20082;-95
2023/07/03 05:25:29;;;;;;;5.32;1.30;;;15.60;99.90;;;;;;4921936;29;20092;-96
2023/07/03 05:27:55;;;;;;;4.88;1.30;;;15.70;99.90;;;;;;4914582;29;20168;-95
2023/07/03 05:30:20;;;;;;;6.00;1.20;;;15.80;99.90;;;;;;4906742;29;20047;-95
2023/07/03 05:32:50;;;;;;;4.05;1.27;;;15.90;99.90;;;;;;4902870;29;20109;-96
2023/07/03 05:35:18;;;;;;;4.28;1.00;;;16.00;99.90;;;;;;4920262;29;20043;-96
2023/07/03 05:37:44;;;;;;;3.60;1.00;;;15.80;99.90;;;;;;4913991;29;20395;-96
2023/07/03 05:40:16;;;;;;;4.68;1.00;;;16.10;99.90;;;;;;4903889;29;20043;-95
2023/07/03 05:42:44;;;;;;;5.45;1.13;;;16.10;99.90;;;;;;4907455;29;20046;-96
2023/07/03 05:45:11;;;;;;;5.35;1.60;;;16.20;99.90;;;;;;4922766;29;20102;-96
2023/07/03 05:47:37;;;;;;;3.50;1.05;;;16.30;99.90;;;;;;4910566;29;20048;-95
2023/07/03 05:50:04;;;;;;;3.33;0.90;;;16.30;99.90;;;;;;4897600;29;20039;-96
2023/07/03 05:52:30;;;;;;;2.50;0.80;;;16.30;99.90;;;;;;4912289;28;20059;-96
2023/07/03 05:54:58;;;;;;;5.68;1.17;;;16.20;99.90;;;;;;4906534;29;20690;-95
2023/07/03 05:57:24;;;;;;;4.53;1.17;;;16.20;99.90;;;;;;4930487;28;20405;-94
2023/07/03 05:59:50;;;;;;;6.00;1.17;;;16.20;99.90;;;;;;4926030;29;20044;-96
2023/07/03 06:02:17;;;;;;;3.95;0.90;;;16.20;99.90;;;;;;4928147;29;20047;-95
2023/07/03 06:04:43;;;;;;;4.72;1.00;;;16.30;99.90;;;;;;4922736;29;20081;-94
2023/07/03 06:07:09;;;;;;;4.40;1.10;;;16.30;99.90;;;;;;4910966;29;20047;-93
2023/07/03 06:09:35;;;;;;;3.33;0.77;;;16.40;99.90;;;;;;4909392;29;20487;-94
2023/07/03 06:12:02;;;;;;;2.72;0.80;;;16.40;99.90;;;;;;4925109;29;20076;-94
2023/07/03 06:14:29;;;;;;;4.20;1.35;;;16.60;99.90;;;;;;4924976;29;20039;-86
2023/07/03 06:16:56;;;;;;;7.47;1.25;;;16.90;99.90;;;;;;4923476;29;20051;-86
2023/07/03 06:19:22;;;;;;;3.50;0.88;;;17.10;99.90;;;;;;4902921;29;20155;-86
2023/07/03 06:21:48;;;;;;;2.78;0.95;;;17.70;99.90;;;;;;4904272;29;20115;-86
2023/07/03 06:24:14;;;;;;;3.22;1.15;;;18.70;99.90;;;;;;4917802;29;20035;-86
2023/07/03 06:26:42;;;;;;;4.63;1.07;;;19.10;99.90;;;;;;4924042;29;20036;-86
2023/07/03 06:29:09;;;;;;;3.58;1.00;;;19.00;99.90;;;;;;4901584;29;20050;-85
2023/07/03 06:31:36;;;;;;;4.10;0.93;;;18.80;99.90;;;;;;4904995;29;20550;-84
2023/07/03 06:34:03;;;;;;;5.32;1.23;;;18.50;99.90;;;;;;4923178;29;20228;-86
2023/07/03 06:36:31;;;;;;;4.60;0.87;;;18.40;99.90;;;;;;4924044;29;20059;-96
2023/07/03 06:39:00;;;;;;;4.32;1.23;;;18.40;99.90;;;;;;4912435;29;20075;-96
2023/07/03 06:41:28;;;;;;;5.97;1.00;;;18.40;99.90;;;;;;4927041;29;20490;-95
2023/07/03 06:43:55;;;;;;;2.88;1.00;;;18.40;99.90;;;;;;4923960;29;20420;-96
2023/07/03 06:46:22;;;;;;;3.78;0.88;;;18.40;99.90;;;;;;4924931;29;20126;-95
2023/07/03 06:48:48;;;;;;;4.97;1.20;;;18.50;99.90;;;;;;4922004;29;20046;-96
2023/07/03 06:51:23;;;;;;;3.85;0.90;;;18.20;99.90;;;;;;4894119;29;20047;-96
2023/07/03 06:53:49;;;;;;;2.63;0.70;;;18.10;99.90;;;;;;4925620;29;20039;-96
2023/07/03 06:56:15;;;;;;;7.65;1.02;;;17.70;99.90;;;;;;4925990;28;20143;-95
2023/07/03 06:58:41;;;;;;;6.30;1.02;;;17.60;99.90;;;;;;4904722;29;20038;-96
2023/07/03 07:01:09;;;;;;;3.05;0.80;;;17.30;99.90;;;;;;4909337;29;20106;-94
2023/07/03 07:03:35;;;;;;;4.43;1.00;;;17.00;99.90;;;;;;4913815;29;20270;-95
2023/07/03 07:06:08;;;;;;;4.00;1.10;;;16.80;99.90;;;;;;4919216;29;20063;-96
2023/07/03 07:08:34;;;;;;;4.25;1.23;;;16.60;99.90;;;;;;4923177;29;20487;-96
2023/07/03 07:11:00;;;;;;;6.00;1.27;;;16.50;99.90;;;;;;4923528;29;20050;-95
2023/07/03 07:13:33;;;;;;;5.00;1.17;;;16.40;99.90;;;;;;4908506;29;20043;-96
2023/07/03 07:15:59;;;;;;;4.90;1.13;;;16.30;99.90;;;;;;4898741;29;20046;-96
2023/07/03 07:18:25;;;;;;;3.97;0.75;;;16.30;99.90;;;;;;4903181;29;20047;-95
2023/07/03 07:20:54;;;;;;;3.88;0.85;;;16.40;99.90;;;;;;4910263;29;20071;-95
2023/07/03 07:23:20;;;;;;;5.13;0.90;;;16.40;99.90;;;;;;4893005;29;20047;-94
2023/07/03 07:25:52;;;;;;;3.90;0.93;;;16.70;99.90;;;;;;4911653;29;20035;-94
2023/07/03 07:28:18;;;;;;;4.65;1.10;;;16.70;99.90;;;;;;4907110;29;20083;-95
2023/07/03 07:30:53;;;;;;;3.45;1.00;;;16.70;99.90;;;;;;4894622;29;20035;-96
2023/07/03 07:33:20;;;;;;;4.68;1.00;;;17.90;99.90;;;;;;4922976;29;20035;-96
2023/07/03 07:35:46;;;;;;;4.93;0.73;;;19.10;99.90;;;;;;4904999;29;20042;-95
2023/07/03 07:38:13;;;;;;;3.53;0.68;;;19.20;99.90;;;;;;4905664;29;20047;-96
2023/07/03 07:40:39;;;;;;;2.40;0.90;;;18.80;99.90;;;;;;4891771;29;20046;-96
2023/07/03 07:43:06;;;;;;;3.03;0.82;;;18.50;99.90;;;;;;4923094;29;20130;-94
2023/07/03 07:45:33;;;;;;;2.15;0.80;;;18.10;99.90;;;;;;4922302;29;20043;-95
2023/07/03 07:47:59;;;;;;;3.70;0.80;;;17.70;99.90;;;;;;4907783;29;20035;-94
2023/07/03 07:50:27;;;;;;;4.18;0.90;;;17.50;99.90;;;;;;4923242;29;20043;-94
2023/07/03 07:52:54;;;;;;;1.90;0.70;;;17.40;99.90;;;;;;4907735;29;20054;-95
2023/07/03 07:55:19;;;;;;;4.83;1.23;;;17.50;99.90;;;;;;4923771;29;20076;-96
2023/07/03 07:57:45;;;;;;;3.25;0.80;;;17.60;99.90;;;;;;4903124;29;20048;-96
2023/07/03 08:00:11;;;;;;;3.15;1.00;;;17.70;99.90;;;;;;4904707;29;20047;-95
2023/07/03 08:02:37;;;;;;;3.33;0.90;;;17.60;99.90;;;;;;4908017;29;20510;-95
2023/07/03 08:05:04;;;;;;;5.32;1.20;;;17.50;99.90;;;;;;4903347;29;20047;-94
2023/07/03 08:07:30;;;;;;;3.40;0.77;;;17.60;99.90;;;;;;4901104;29;20491;-95
2023/07/03 08:09:56;;;;;;;6.25;1.05;;;17.70;99.90;;;;;;4891799;29;20044;-94
2023/07/03 08:12:22;;;;;;;3.10;1.00;;;17.70;99.90;;;;;;4901398;29;20488;-95
2023/07/03 08:14:48;;;;;;;3.65;0.93;;;17.80;99.90;;;;;;4903462;29;20192;-95
2023/07/03 08:17:13;;;;;;;5.97;0.90;;;17.80;99.90;;;;;;4902457;29;20142;-94
2023/07/03 08:19:39;;;;;;;3.20;0.73;;;17.90;99.90;;;;;;4900010;29;20211;-94
2023/07/03 08:22:05;;;;;;;5.88;1.10;;;18.00;99.90;;;;;;4879287;29;20043;-94
2023/07/03 08:24:31;;;;;;;2.85;0.85;;;18.50;99.90;;;;;;4906054;29;20479;-92
2023/07/03 08:26:56;;;;;;;5.50;1.05;;;18.80;99.90;;;;;;4892443;29;20031;-92
2023/07/03 08:29:22;;;;;;;2.80;0.55;;;19.10;99.90;;;;;;4889092;29;20047;-93
2023/07/03 08:31:48;;;;;;;4.13;0.70;;;18.80;99.90;;;;;;4893816;29;20551;-96
2023/07/03 08:34:15;;;;;;;2.95;0.60;;;18.50;99.90;;;;;;4907522;29;20039;-96
2023/07/03 08:36:40;;;;;;;3.28;0.65;;;18.30;99.90;;;;;;4891566;29;20049;-92
2023/07/03 08:39:06;;;;;;;5.25;0.65;;;18.50;99.90;;;;;;4917339;29;20047;-93
2023/07/03 08:41:41;;;;;;;3.17;0.75;;;19.40;99.90;;;;;;4902650;29;20065;-93
2023/07/03 08:44:08;;;;;;;2.60;0.60;;;20.00;99.90;;;;;;4923039;29;20502;-92
2023/07/03 08:46:36;;;;;;;2.17;0.60;;;;;;;;;;4921683;29;20031;-93
2023/07/03 08:49:05;;;;;;;3.08;0.70;;;20.70;99.90;;;;;;4906791;29;20079;-93
2023/07/03 08:51:36;;;;;;;3.45;0.60;;;20.60;99.90;;;;;;4921890;29;20475;-93
2023/07/03 08:54:28;;;;;;;2.13;0.60;;;20.10;99.90;;;;;;4921373;29;20406;-92
2023/07/03 08:56:56;;;;;;;2.22;0.73;;;20.00;99.90;;;;;;4910592;29;20495;-93
2023/07/03 08:59:22;;;;;;;2.00;0.50;;;19.90;99.90;;;;;;4921341;29;20039;-93
2023/07/03 09:02:31;;;;;;;1.60;0.75;;;19.80;99.90;;;;;;4921051;29;20070;-93
2023/07/03 09:05:15;;;;;;;2.90;0.60;;;19.60;99.90;;;;;;4929815;29;20066;-92
2023/07/03 09:07:57;;;;;;;1.50;0.55;;;19.30;99.90;;;;;;4921111;29;20039;-94
2023/07/03 09:10:46;;;;;;;2.95;0.60;;;19.00;99.90;;;;;;4919622;29;20122;-94
2023/07/03 09:13:39;;;;;;;4.97;0.70;;;18.70;99.90;;;;;;4930184;29;20103;-93
2023/07/03 09:16:18;;;;;;;3.03;0.60;;;18.40;99.90;;;;;;4920479;29;20086;-92
2023/07/03 09:19:02;;;;;;;1.98;0.50;;;18.10;99.90;;;;;;4916370;29;20080;-93
2023/07/03 09:21:30;;;;;;;1.95;0.57;;;17.80;99.90;;;;;;4926451;29;20122;-94
2023/07/03 09:24:16;;;;;;;4.25;0.52;;;17.50;99.90;;;;;;4914383;29;20051;-94
2023/07/03 09:26:49;;;;;;;1.55;0.50;;;17.40;99.90;;;;;;4919675;29;20050;-93
2023/07/03 09:30:08;;;;;;;2.75;0.70;;;17.30;99.90;;;;;;4914098;29;20521;-94
2023/07/03 09:32:49;;;;;;;1.98;0.68;;;17.10;99.90;;;;;;4898074;29;20376;-94
2023/07/03 09:35:19;;;;;;;2.55;0.52;;;17.40;99.90;;;;;;4912804;29;20513;-94
2023/07/03 09:37:59;;;;;;;2.50;0.50;;;17.40;99.90;;;;;;4914133;29;20077;-94
2023/07/03 09:40:29;;;;;;;1.75;0.43;;;17.50;99.90;;;;;;4919639;29;20071;-94
2023/07/03 09:42:55;;;;;;;5.85;0.50;;;17.60;99.90;;;;;;4919180;29;20079;-95
2023/07/03 09:45:25;;;;;;;3.05;0.80;;;17.90;99.90;;;;;;4896292;29;20442;-85
2023/07/03 09:47:58;;;;;;;2.15;0.80;;;18.10;99.90;;;;;;4930537;29;20402;-86
2023/07/03 09:50:38;;;;;;;3.67;0.80;;;18.20;99.90;;;;;;4925795;29;20046;-85
2023/07/03 09:53:05;;;;;;;4.03;0.80;;;18.20;99.90;;;;;;4955580;28;20444;-84
2023/07/03 09:55:32;;;;;;;2.75;0.80;;;18.20;99.90;;;;;;4929317;29;20047;-88
2023/07/03 09:57:59;;;;;;;3.85;0.77;;;18.10;99.90;;;;;;4901776;29;20057;-96
2023/07/03 10:00:25;;;;;;;;;;;18.00;99.90;;;;;;4923522;29;20064;-96
2023/07/03 10:02:56;;;;;;;3.70;1.00;;;17.90;99.90;;;;;;4920273;29;20365;-96
2023/07/03 10:05:31;;;;;;;2.72;0.45;;;17.90;99.90;;;;;;4921046;29;20042;-93
2023/07/03 10:08:01;;;;;;;3.25;0.80;;;17.90;99.90;;;;;;4919558;29;20039;-92
2023/07/03 10:10:32;;;;;;;3.30;0.47;;;17.80;99.90;;;;;;4903187;29;20110;-95
2023/07/03 10:13:01;;;;;;;1.65;0.68;;;17.80;99.90;;;;;;4907855;29;20047;-95
2023/07/03 10:15:33;;;;;;;1.55;0.50;;;17.70;99.90;;;;;;4919749;29;20487;-95
2023/07/03 10:18:11;;;;;;;2.42;0.50;;;17.70;99.90;;;;;;4896209;29;20059;-91
2023/07/03 10:20:42;;;;;;;1.80;0.60;;;17.60;99.90;;;;;;4899914;29;20040;-91
2023/07/03 10:23:12;;;;;;;2.30;0.50;;;17.60;99.90;;;;;;4897225;29;20056;-92
2023/07/03 10:25:42;;;;;;;2.38;0.60;;;17.60;99.90;;;;;;4901697;29;20039;-91
2023/07/03 10:28:18;;;;;;;1.40;0.57;;;17.50;99.90;;;;;;4901451;29;20032;-92
2023/07/03 10:30:47;;;;;;;2.65;0.60;;;17.50;99.90;;;;;;4914391;29;20480;-91
2023/07/03 10:33:19;;;;;;;1.25;0.30;;;17.50;99.90;;;;;;4888114;29;20130;-91
2023/07/03 10:35:49;;;;;;;1.23;0.40;;;17.40;99.90;;;;;;4904298;29;20096;-91
2023/07/03 10:38:39;;;;;;;1.90;0.40;;;17.40;99.90;;;;;;4907065;29;20155;-93
2023/07/03 10:41:12;;;;;;;0.95;0.43;;;17.30;99.90;;;;;;4899126;29;20040;-91
2023/07/03 10:43:55;;;;;;;0.93;0.30;;;17.30;99.90;;;;;;4900914;29;20127;-92
2023/07/03 10:47:04;;;;;;;2.08;0.75;;;17.50;99.90;;;;;;4903608;29;20040;-94
2023/07/03 10:49:32;;;;;;;2.83;0.70;;;17.60;99.90;;;;;;4886016;29;20099;-93
2023/07/03 10:52:38;;;;;;;2.38;0.85;;;17.60;99.90;;;;;;4905231;29;20044;-93
2023/07/03 10:55:26;;;;;;;2.72;0.90;;;17.40;99.90;;;;;;4902578;29;20126;-94
2023/07/03 10:58:24;;;;;;;2.33;0.50;;;17.50;99.90;;;;;;4902209;29;20476;-94
2023/07/03 11:01:12;;;;;;;0.40;0.32;;;17.40;99.90;;;;;;4902723;29;20039;-93
2023/07/03 11:04:17;;;;;;;1.48;0.60;;;17.20;99.90;;;;;;4901559;29;20952;-94
2023/07/03 11:07:14;;;;;;;1.23;0.40;;;17.00;99.90;;;;;;4812877;29;20102;-94
2023/07/03 11:09:43;;;;;;;3.80;1.00;;;16.90;99.90;;;;;;4927837;29;20044;-95
2023/07/03 11:12:52;;;;;;;2.38;0.88;;;16.80;99.90;;;;;;4899817;29;20074;-94
2023/07/03 11:16:01;;;;;;;2.35;0.63;;;16.90;99.90;;;;;;4903223;29;20089;-94
2023/07/03 11:18:48;;;;;;;2.60;0.55;;;17.20;99.90;;;;;;4917870;29;20469;-93
2023/07/03 11:21:32;;;;;;;4.43;0.63;;;17.60;99.90;;;;;;4913417;29;20396;-93
2023/07/03 11:24:43;;;;;;;;;;;;;;;;;;;;;
2023/07/03 11:27:56;;;;;;;1.95;0.63;;;18.10;99.90;;;;;;4914361;29;20048;-93
2023/07/03 11:38:31;;;;;;;3.60;0.80;;;19.00;99.90;;;;;;4891048;29;20069;-93
2023/07/03 11:45:35;;;;;;;1.65;0.50;;;18.90;99.90;;;;;;4842790;29;20055;-94
2023/07/03 11:49:07;;;;;;;3.28;0.60;;;18.50;99.90;;;;;;4821383;29;20034;-92
2023/07/03 11:51:45;;;;;;;2.70;0.60;;;18.40;99.90;;;;;;4865055;29;20053;-93
2023/07/03 11:58:34;;;;;;;2.33;0.52;;;18.20;99.90;;;;;;4897284;29;20581;-93
2023/07/03 12:01:23;;;;;;;2.17;0.57;;;17.90;99.90;;;;;;4907525;29;20055;-92
2023/07/03 12:03:52;;;;;;;2.75;0.60;;;17.90;99.90;;;;;;4914195;29;20047;-94
2023/07/03 12:06:42;;;;;;;1.98;0.60;;;17.80;99.90;;;;;;4914580;29;20158;-92
2023/07/03 12:09:33;;;;;;;3.53;0.60;;;18.00;99.90;;;;;;4915833;29;20047;-94
2023/07/03 12:12:03;;;;;;;2.40;0.50;;;18.30;99.90;;;;;;4919026;29;20035;-93
2023/07/03 12:15:09;;;;;;;3.35;0.80;;;18.60;99.90;;;;;;4915046;29;20479;-93
2023/07/03 12:17:49;;;;;;;1.98;0.50;;;18.60;99.90;;;;;;4913012;28;20098;-94
2023/07/03 12:20:30;;;;;;;1.98;0.52;;;18.60;99.90;;;;;;4915213;29;20047;-92
2023/07/03 12:22:56;;;;;;;2.65;0.60;;;18.50;99.90;;;;;;4919768;29;20047;-93
2023/07/03 12:32:50;;;;;;;3.30;0.57;;;18.30;99.90;;;;;;4789513;29;20716;-90
2023/07/03 12:35:25;;;;;;;2.55;0.63;;;18.30;99.90;;;;;;4857626;29;20037;-90
2023/07/03 12:37:56;;;;;;;2.03;0.50;;;18.30;99.90;;;;;;4845460;29;20077;-91
2023/07/03 12:40:24;;;;;;;2.30;0.55;;;18.20;99.90;;;;;;4912239;29;20042;-91
2023/07/03 12:42:55;;;;;;;3.53;0.75;;;18.10;99.90;;;;;;4922869;29;20055;-91
2023/07/03 12:45:29;;;;;;;3.25;0.70;;;18.10;99.90;;;;;;4921092;29;20043;-90
2023/07/03 12:51:52;;;;;;;2.83;0.90;;;17.80;99.90;;;;;;4879086;29;20044;-90
2023/07/03 12:54:18;;;;;;;2.33;0.60;;;17.90;99.90;;;;;;4916506;29;20059;-89
2023/07/03 12:56:45;;;;;;;2.53;0.70;;;17.90;99.90;;;;;;4883747;29;20047;-90
2023/07/03 12:59:14;;;;;;;3.28;0.70;;;17.80;99.90;;;;;;4923311;29;20075;-90
2023/07/03 13:01:45;;;;;;;2.97;0.93;;;17.80;99.90;;;;;;4922433;29;20047;-87
2023/07/03 13:04:11;;;;;;;2.50;0.77;;;17.90;99.90;;;;;;4922809;29;20039;-91
2023/07/03 13:06:36;;;;;;;2.35;0.50;;;18.00;99.90;;;;;;4908700;29;20035;-89
2023/07/03 13:09:10;;;;;;;3.25;0.60;;;18.00;99.90;;;;;;4928075;29;20055;-90
2023/07/03 13:11:44;;;;;;;3.55;0.52;;;18.10;99.90;;;;;;4943684;28;20234;-90
2023/07/03 13:14:25;;;;;;;3.80;0.80;;;18.10;99.90;;;;;;4941026;29;20098;-89
2023/07/03 13:16:56;;;;;;;2.17;0.60;;;18.00;99.90;;;;;;4929113;29;20058;-90
2023/07/03 13:19:34;;;;;;;3.35;0.80;;;18.00;99.90;;;;;;4927994;29;20047;-87
2023/07/03 13:22:07;;;;;;;4.13;0.82;;;18.00;99.90;;;;;;4911803;29;20075;-88
2023/07/03 13:24:41;;;;;;;4.18;0.70;;;18.00;99.90;;;;;;4922482;29;20563;-86
2023/07/03 13:27:07;;;;;;;3.20;0.88;;;18.00;99.90;;;;;;4920183;29;20078;-87
2023/07/03 13:29:34;;;;;;;2.72;0.95;;;18.00;99.90;;;;;;4919218;29;20067;-88
2023/07/03 13:32:10;;;;;;;;;;;18.00;99.90;;;;;;4921538;29;20042;-88
2023/07/03 13:34:55;;;;;;;2.78;0.90;;;18.10;99.90;;;;;;4920476;29;19927;-88
2023/07/03 13:37:27;;;;;;;5.90;0.63;;;18.20;99.90;;;;;;4904174;29;20087;-85